Riverdance — C6CG3 — position and weather

sailwx.info

Track history (hours):
 
Tides and Currents Weather Stations Pressure Air Temp Water Temp Dewpoint Dewpoint Depression Visibility Wind Speed Wind Dir Waves Ship Positions

Riverdance

Operator: Crescent Marine Services Ltd

Last reported at 2018-Feb-23 04:51 UTC. Time now 2018-Feb-24 02:39 UTC.
Position N 57°48' E 006°12'.

Length 72 m; draft 5.8 m.

Type: Other ship. MMSI: 311000463.

Date/timePositionNaut miles runAvg speedWind from/ knotsBaromVisibWave heightAir tempDewpointWater temp
2018-Feb-23 04:51N 57°48' E 006°12'310.1
2018-Feb-23 04:30N 57°49' E 006°19'610.5
2018-Feb-23 03:58N 57°50' E 006°29'510.0
2018-Feb-23 03:29N 57°48' E 006°38'510.1
2018-Feb-23 03:00N 57°48' E 006°47'510.3
2018-Feb-23 02:31N 57°47' E 006°56'510.6
2018-Feb-23 02:00N 57°47' E 007°06'510.4
2018-Feb-23 01:30N 57°47' E 007°16'510.4
2018-Feb-23 01:00N 57°47' E 007°26'510.3
2018-Feb-23 00:29N 57°46' E 007°36'510.2
2018-Feb-23 00:01N 57°46' E 007°45'510.1
2018-Feb-22 23:30N 57°46' E 007°54'510.2
2018-Feb-22 23:00N 57°48' E 008°03'611.0
2018-Feb-22 22:30N 57°51' E 008°12'611.5
2018-Feb-22 21:59N 57°54' E 008°22'510.8
2018-Feb-22 21:30N 57°57' E 008°30'610.9
2018-Feb-22 20:56N 57°60' E 008°40'510.6
2018-Feb-22 20:29N 58°02' E 008°48'510.6
2018-Feb-22 19:59N 58°05' E 008°56'510.2
2018-Feb-22 19:31N 58°07' E 009°05'18 9.9
2018-Feb-22 17:43N 58°14' E 009°36'3 4.1
2018-Feb-22 17:04N 58°16' E 009°40'1 2.0
2018-Feb-22 16:30N 58°15' E 009°41'3 3.9
2018-Feb-22 15:49N 58°17' E 009°37'2 1.7
2018-Feb-22 14:49N 58°16' E 009°40'1 4.3
2018-Feb-22 14:30N 58°17' E 009°38'5 3.7
2018-Feb-22 13:06N 58°15' E 009°29'2 2.0
2018-Feb-22 12:19N 58°14' E 009°30'1 0.6
2018-Feb-22 10:36N 58°13' E 009°28'0 3.4
2018-Feb-22 10:29N 58°13' E 009°28'4 3.2
2018-Feb-22 09:11N 58°14' E 009°35'0 0.9
2018-Feb-22 08:48N 58°15' E 009°35'1 0.2
2018-Feb-22 05:56N 58°15' E 009°35'37 2.8
2018-Feb-21 16:41N 58°45' E 010°16'2 9.9
2018-Feb-21 16:30N 58°47' E 010°18'510.1
2018-Feb-21 16:00N 58°51' E 010°24'510.1
2018-Feb-21 15:30N 58°55' E 010°29'5 9.9
2018-Feb-21 15:01N 58°59' E 010°33'5 9.9
2018-Feb-21 14:31N 59°04' E 010°34'5 9.4
2018-Feb-21 14:01N 59°09' E 010°36'5 9.9
2018-Feb-21 13:30N 59°14' E 010°35'510.4
2018-Feb-21 13:00N 59°19' E 010°33'510.1
2018-Feb-21 12:31N 59°24' E 010°30'1 2.3
2018-Feb-21 11:59N 59°25' E 010°30'0 0.0
2018-Feb-21 11:29N 59°25' E 010°30'0 0.0
2018-Feb-21 10:59N 59°25' E 010°30'0 0.0
2018-Feb-21 10:29N 59°25' E 010°30'0 0.0
2018-Feb-21 09:59N 59°25' E 010°30'0 0.0
2018-Feb-21 09:29N 59°25' E 010°30'0 0.0
2018-Feb-21 08:59N 59°25' E 010°30'0 0.0
2018-Feb-21 08:29N 59°25' E 010°30'0 0.0
2018-Feb-21 07:59N 59°25' E 010°30'0 0.0
2018-Feb-21 07:29N 59°25' E 010°30'0 0.0
2018-Feb-21 06:59N 59°25' E 010°30'0 0.0
2018-Feb-21 06:29N 59°25' E 010°30'0 0.0
2018-Feb-21 05:59N 59°25' E 010°30'0 0.0
2018-Feb-21 05:29N 59°25' E 010°30'0 0.0
2018-Feb-21 04:59N 59°25' E 010°30'0 0.0
2018-Feb-21 04:29N 59°25' E 010°30'0 0.0
2018-Feb-21 03:59N 59°25' E 010°30'0 0.0
2018-Feb-21 03:29N 59°25' E 010°30'0 0.0
2018-Feb-21 02:59N 59°25' E 010°30'0 0.0
2018-Feb-21 02:29N 59°25' E 010°30'0 0.0
2018-Feb-21 01:59N 59°25' E 010°30'0 0.0
2018-Feb-21 01:29N 59°25' E 010°30'0 0.0
2018-Feb-21 00:59N 59°25' E 010°30'0 0.0
2018-Feb-21 00:29N 59°25' E 010°30'0 0.0
2018-Feb-20 23:59N 59°25' E 010°30'0 0.0
2018-Feb-20 23:29N 59°25' E 010°30'0 0.0
2018-Feb-20 22:59N 59°25' E 010°30'0 0.0
2018-Feb-20 22:29N 59°25' E 010°30'0 0.0
2018-Feb-20 21:59N 59°25' E 010°30'0 0.0
2018-Feb-20 21:29N 59°25' E 010°30'0 0.0
2018-Feb-20 20:59N 59°25' E 010°30'0 0.0
2018-Feb-20 20:29N 59°25' E 010°30'1 1.8
2018-Feb-20 20:00N 59°24' E 010°30'0 0.5
2018-Feb-20 19:30N 59°24' E 010°30'1 1.0
2018-Feb-20 19:00N 59°23' E 010°30'1 2.3
2018-Feb-20 18:30N 59°22' E 010°30'2 4.4
2018-Feb-20 18:00N 59°20' E 010°32'4 8.3
2018-Feb-20 17:30N 59°16' E 010°35'5 9.3
2018-Feb-20 17:00N 59°12' E 010°37'5 9.9
2018-Feb-20 16:30N 59°07' E 010°36'5 9.0
2018-Feb-20 16:00N 59°02' E 010°34'4 8.2
2018-Feb-20 15:30N 58°58' E 010°33'5 9.7
2018-Feb-20 15:00N 58°54' E 010°28'510.6
2018-Feb-20 14:30N 58°50' E 010°22'510.4
2018-Feb-20 14:00N 58°46' E 010°16'510.6
2018-Feb-20 13:30N 58°41' E 010°10'610.7
2018-Feb-20 12:59N 58°37' E 010°04'7 0.6
2018-Feb-20 02:45N 58°39' E 010°16'2 6.2
2018-Feb-20 02:30N 58°40' E 010°18'3 6.2
2018-Feb-20 02:00N 58°42' E 010°22'3 6.0
2018-Feb-20 01:30N 58°45' E 010°26'3 6.1
2018-Feb-20 01:00N 58°47' E 010°30'3 5.4
2018-Feb-20 00:30N 58°49' E 010°32'3 5.3
2018-Feb-20 00:00N 58°52' E 010°33'3 5.7
2018-Feb-19 23:30N 58°55' E 010°33'3 5.9
2018-Feb-19 23:00N 58°58' E 010°34'4 8.8
2018-Feb-19 22:30N 59°02' E 010°35'1 2.8
2018-Feb-19 22:00N 59°03' E 010°35'3 6.8
2018-Feb-19 21:30N 58°60' E 010°34'3 6.7
2018-Feb-19 21:00N 58°57' E 010°33'4 7.1
2018-Feb-19 20:30N 58°53' E 010°32'4 7.2
2018-Feb-19 20:00N 58°50' E 010°31'4 7.8
2018-Feb-19 19:30N 58°46' E 010°30'5 9.4
2018-Feb-19 19:00N 58°41' E 010°29'5 9.5
2018-Feb-19 18:30N 58°36' E 010°28'4 8.8
2018-Feb-19 18:00N 58°32' E 010°27'27 8.5
2018-Feb-19 14:52N 58°05' E 010°31'3 9.1
2018-Feb-19 14:30N 58°02' E 010°33'5 9.2
2018-Feb-19 14:00N 57°58' E 010°37'5 9.4
2018-Feb-19 13:30N 57°54' E 010°41'4 8.9
2018-Feb-19 13:00N 57°50' E 010°44'5 9.6
2018-Feb-19 12:30N 57°45' E 010°46'510.2
2018-Feb-19 12:00N 57°40' E 010°46'5 9.9
2018-Feb-19 11:30N 57°35' E 010°45'5 9.9
2018-Feb-19 11:00N 57°30' E 010°44'510.0
2018-Feb-19 10:30N 57°25' E 010°44'510.4
2018-Feb-19 10:00N 57°20' E 010°43'118 9.7
2018-Feb-18 21:51N 55°22' E 011°02'510.9
2018-Feb-18 21:26N 55°18' E 011°03'511.0
2018-Feb-18 21:00N 55°14' E 011°06'510.8
2018-Feb-18 20:30N 55°09' E 011°03'510.7
2018-Feb-18 20:00N 55°03' E 011°02'510.7
2018-Feb-18 19:30N 54°58' E 010°59'611.2
2018-Feb-18 19:00N 54°54' E 010°54'611.2
2018-Feb-18 18:30N 54°48' E 010°53'510.7
2018-Feb-18 18:00N 54°43' E 010°54'510.0
2018-Feb-18 17:30N 54°40' E 011°00'510.4
2018-Feb-18 17:00N 54°37' E 011°08'510.4
2018-Feb-18 16:30N 54°34' E 011°16'510.2
2018-Feb-18 16:00N 54°32' E 011°24'5 9.9
2018-Feb-18 15:30N 54°30' E 011°32'5 9.5
2018-Feb-18 15:00N 54°28' E 011°39'5 9.4
2018-Feb-18 14:30N 54°26' E 011°46'5 9.2
2018-Feb-18 13:58N 54°22' E 011°52'5 9.6
2018-Feb-18 13:28N 54°18' E 011°57'5 9.7
2018-Feb-18 13:00N 54°15' E 012°02'6 1.8
2018-Feb-18 09:38N 54°09' E 012°06'0 0.0
2018-Feb-18 07:41N 54°09' E 012°06'0 0.0
2018-Feb-18 06:41N 54°09' E 012°06'0 0.0
2018-Feb-18 06:26N 54°09' E 012°06'0 0.0
2018-Feb-18 05:59N 54°09' E 012°06'0 0.0
2018-Feb-18 04:44N 54°09' E 012°06'0 0.0
2018-Feb-18 03:38N 54°09' E 012°06'0 0.0
2018-Feb-18 03:29N 54°09' E 012°06'0 0.0
2018-Feb-18 02:14N 54°09' E 012°06'0 0.0
2018-Feb-18 01:47N 54°09' E 012°06'0 0.0
2018-Feb-17 22:50N 54°09' E 012°06'0 0.0
2018-Feb-17 20:29N 54°09' E 012°06'0 0.0
2018-Feb-17 17:41N 54°09' E 012°06'0 0.0
2018-Feb-17 17:26N 54°09' E 012°06'0 0.0
2018-Feb-17 16:56N 54°09' E 012°06'0 0.0
2018-Feb-17 16:26N 54°09' E 012°06'0 0.0
2018-Feb-17 15:59N 54°09' E 012°06'0 0.0
2018-Feb-17 14:29N 54°09' E 012°06'0 0.0
2018-Feb-17 13:11N 54°09' E 012°06'0 0.0
2018-Feb-17 12:59N 54°09' E 012°06'0 0.0
2018-Feb-17 11:44N 54°09' E 012°06'0 0.0
2018-Feb-17 11:29N 54°09' E 012°06'0 0.0
2018-Feb-17 10:59N 54°09' E 012°06'0 0.0
2018-Feb-17 06:53N 54°09' E 012°06'0 0.0
2018-Feb-17 06:23N 54°09' E 012°06'0 0.0
2018-Feb-17 04:56N 54°09' E 012°06'0 0.0
2018-Feb-17 01:44N 54°09' E 012°06'0 0.0
2018-Feb-17 00:14N 54°09' E 012°06'0 0.0
2018-Feb-16 23:59N 54°09' E 012°06'0 0.0
2018-Feb-16 23:29N 54°09' E 012°06'0 0.0
2018-Feb-16 22:59N 54°09' E 012°06'0 0.0
2018-Feb-16 20:30N 54°09' E 012°06'0 0.0
2018-Feb-16 19:50N 54°09' E 012°06'0 0.0
2018-Feb-16 19:05N 54°09' E 012°06'0 0.0
2018-Feb-16 18:53N 54°09' E 012°06'0 0.0
2018-Feb-16 15:56N 54°09' E 012°06'0 0.0
2018-Feb-16 15:26N 54°09' E 012°06'0 0.0
2018-Feb-16 14:56N 54°09' E 012°06'0 0.0
2018-Feb-16 12:59N 54°09' E 012°06'0 0.0
2018-Feb-16 12:29N 54°09' E 012°06'0 0.0
2018-Feb-16 09:44N 54°09' E 012°06'0 0.0
2018-Feb-16 07:14N 54°09' E 012°06'0 0.0
2018-Feb-16 06:59N 54°09' E 012°06'0 0.0
2018-Feb-16 05:35N 54°09' E 012°06'0 0.0
2018-Feb-16 05:20N 54°09' E 012°06'0 0.0
2018-Feb-16 04:53N 54°09' E 012°06'0 0.0
2018-Feb-16 04:09N 54°09' E 012°06'0 0.0
2018-Feb-16 03:53N 54°09' E 012°06'0 0.0
2018-Feb-16 01:23N 54°09' E 012°06'0 0.0
2018-Feb-15 23:29N 54°09' E 012°06'0 0.0
2018-Feb-15 21:59N 54°09' E 012°06'0 0.0
2018-Feb-15 20:59N 54°09' E 012°06'0 0.0
2018-Feb-15 18:47N 54°09' E 012°06'0 0.0
2018-Feb-15 14:38N 54°09' E 012°06'0 0.0
2018-Feb-15 14:23N 54°09' E 012°06'0 0.0
2018-Feb-15 10:00N 54°09' E 012°06'3 4.2
2018-Feb-15 09:15N 54°12' E 012°05'2 8.7
2018-Feb-15 09:00N 54°14' E 012°03'510.0
2018-Feb-15 08:31N 54°19' E 012°00'510.1
2018-Feb-15 08:00N 54°24' E 011°59'5 9.2
2018-Feb-15 07:30N 54°26' E 012°06'510.5
2018-Feb-15 07:01N 54°30' E 012°11'511.0
2018-Feb-15 06:30N 54°35' E 012°14'610.9
2018-Feb-15 06:00N 54°39' E 012°21'6711.1
2018-Feb-14 23:59N 55°05' E 014°08'611.2
2018-Feb-14 23:29N 55°10' E 014°14'6 7.3
2018-Feb-14 22:39N 55°14' E 014°21'1 4.7
2018-Feb-14 22:30N 55°15' E 014°22'1 1.8
2018-Feb-14 22:00N 55°14' E 014°23'0 0.0
2018-Feb-14 21:30N 55°14' E 014°23'0 0.0
2018-Feb-14 21:00N 55°14' E 014°23'0 0.0
2018-Feb-14 20:30N 55°14' E 014°23'1 0.4
2018-Feb-14 18:55N 55°14' E 014°23'0 1.1
2018-Feb-14 18:31N 55°13' E 014°24'0 0.0
2018-Feb-14 18:00N 55°13' E 014°24'0 0.0
2018-Feb-14 17:29N 55°13' E 014°24'0 0.2
2018-Feb-14 17:00N 55°13' E 014°24'0 0.5
2018-Feb-14 16:00N 55°13' E 014°24'0 0.7
2018-Feb-14 15:30N 55°12' E 014°24'2 3.1
2018-Feb-14 15:00N 55°12' E 014°27'0 0.0
2018-Feb-14 14:30N 55°12' E 014°27'0 0.0
2018-Feb-14 14:00N 55°12' E 014°27'0 0.0
2018-Feb-14 13:30N 55°12' E 014°27'0 0.0
2018-Feb-14 13:00N 55°12' E 014°27'0 0.0
2018-Feb-14 12:30N 55°12' E 014°27'0 0.0
2018-Feb-14 12:00N 55°12' E 014°27'0 0.0
2018-Feb-14 11:30N 55°12' E 014°27'2 4.2
2018-Feb-14 11:00N 55°13' E 014°24'0 0.7
2018-Feb-14 10:30N 55°13' E 014°24'0 0.3
2018-Feb-14 10:00N 55°13' E 014°24'0 0.9
2018-Feb-14 09:27N 55°12' E 014°24'0 0.1
2018-Feb-14 09:00N 55°12' E 014°24'1 1.1
2018-Feb-14 08:30N 55°12' E 014°24'0 0.0
2018-Feb-14 08:00N 55°12' E 014°24'1 1.2
2018-Feb-14 07:30N 55°11' E 014°23'0 0.3
2018-Feb-14 07:00N 55°11' E 014°23'0 0.9
2018-Feb-14 06:30N 55°11' E 014°23'0 0.0
2018-Feb-14 06:00N 55°11' E 014°23'0 1.0
2018-Feb-14 05:30N 55°10' E 014°22'0 0.0
2018-Feb-14 05:00N 55°10' E 014°22'1 1.1
2018-Feb-14 04:30N 55°10' E 014°22'0 0.0
2018-Feb-14 04:00N 55°10' E 014°22'1 1.1
2018-Feb-14 03:30N 55°09' E 014°21'1 1.1
2018-Feb-14 03:00N 55°09' E 014°20'0 0.0
2018-Feb-14 02:30N 55°09' E 014°20'0 0.0
2018-Feb-14 01:32N 55°09' E 014°20'0 0.1
2018-Feb-14 01:28N 55°09' E 014°20'3 7.1
2018-Feb-14 01:00N 55°11' E 014°25'3 6.8
2018-Feb-14 00:30N 55°14' E 014°24'0 0.6
2018-Feb-14 00:00N 55°14' E 014°23'0 0.0
2018-Feb-13 23:30N 55°14' E 014°23'1 1.0
2018-Feb-13 23:00N 55°14' E 014°23'0 0.0
2018-Feb-13 22:20N 55°14' E 014°23'1 1.6
2018-Feb-13 22:00N 55°13' E 014°24'0 0.0
2018-Feb-13 21:30N 55°13' E 014°24'1 1.0
2018-Feb-13 20:56N 55°13' E 014°24'0 0.0
2018-Feb-13 20:26N 55°13' E 014°24'1 1.2
2018-Feb-13 20:00N 55°12' E 014°24'0 0.0
2018-Feb-13 19:29N 55°12' E 014°24'1 1.0
2018-Feb-13 19:00N 55°12' E 014°24'0 0.0
2018-Feb-13 18:27N 55°12' E 014°24'1 1.4
2018-Feb-13 18:00N 55°11' E 014°23'0 0.0
2018-Feb-13 17:30N 55°11' E 014°23'1 1.2
2018-Feb-13 16:59N 55°11' E 014°23'0 0.0
2018-Feb-13 16:30N 55°11' E 014°23'0 1.0
2018-Feb-13 16:00N 55°10' E 014°22'0 0.0
2018-Feb-13 15:29N 55°10' E 014°22'1 1.1
2018-Feb-13 15:00N 55°10' E 014°21'0 0.0
2018-Feb-13 14:30N 55°10' E 014°21'1 1.1
2018-Feb-13 14:00N 55°09' E 014°21'0 0.0
2018-Feb-13 13:30N 55°09' E 014°21'0 0.9
2018-Feb-13 13:00N 55°09' E 014°20'0 0.1
2018-Feb-13 12:29N 55°09' E 014°20'1 1.3
2018-Feb-13 11:58N 55°09' E 014°21'510.4
2018-Feb-13 11:30N 55°12' E 014°29'510.8
2018-Feb-13 11:00N 55°15' E 014°36'510.4
2018-Feb-13 10:30N 55°18' E 014°43'3 4.8
2018-Feb-13 09:53N 55°18' E 014°48'0 0.0
2018-Feb-13 09:25N 55°18' E 014°48'0 0.1
2018-Feb-13 08:58N 55°18' E 014°48'4 8.1
2018-Feb-13 08:30N 55°18' E 014°42'611.1
2018-Feb-13 07:58N 55°14' E 014°35'510.4
2018-Feb-13 07:30N 55°10' E 014°30'5 9.5
2018-Feb-13 07:00N 55°06' E 014°25'5 9.5
2018-Feb-13 06:30N 55°02' E 014°20'5 9.1
2018-Feb-13 05:58N 54°58' E 014°16'4 9.2
2018-Feb-13 05:30N 54°53' E 014°15'  
Track history (hours):
 
Tides and Currents Weather Stations Pressure Air Temp Water Temp Dewpoint Dewpoint Depression Visibility Wind Speed Wind Dir Waves Ship Positions

Riverdance

Operator: Crescent Marine Services Ltd

Last reported at 2018-Feb-23 04:51 UTC. Time now 2018-Feb-24 02:39 UTC.
Position N 57°48' E 006°12'.

Length 72 m; draft 5.8 m.

Type: Other ship. MMSI: 311000463.

Date/timePositionNaut miles runAvg speedWind from/ knotsBaromVisibWave heightAir tempDewpointWater temp
2018-Feb-23 04:51N 57°48' E 006°12'310.1
2018-Feb-23 04:30N 57°49' E 006°19'610.5
2018-Feb-23 03:58N 57°50' E 006°29'510.0
2018-Feb-23 03:29N 57°48' E 006°38'510.1
2018-Feb-23 03:00N 57°48' E 006°47'510.3
2018-Feb-23 02:31N 57°47' E 006°56'510.6
2018-Feb-23 02:00N 57°47' E 007°06'510.4
2018-Feb-23 01:30N 57°47' E 007°16'510.4
2018-Feb-23 01:00N 57°47' E 007°26'510.3
2018-Feb-23 00:29N 57°46' E 007°36'510.2
2018-Feb-23 00:01N 57°46' E 007°45'510.1
2018-Feb-22 23:30N 57°46' E 007°54'510.2
2018-Feb-22 23:00N 57°48' E 008°03'611.0
2018-Feb-22 22:30N 57°51' E 008°12'611.5
2018-Feb-22 21:59N 57°54' E 008°22'510.8
2018-Feb-22 21:30N 57°57' E 008°30'610.9
2018-Feb-22 20:56N 57°60' E 008°40'510.6
2018-Feb-22 20:29N 58°02' E 008°48'510.6
2018-Feb-22 19:59N 58°05' E 008°56'510.2
2018-Feb-22 19:31N 58°07' E 009°05'18 9.9
2018-Feb-22 17:43N 58°14' E 009°36'3 4.1
2018-Feb-22 17:04N 58°16' E 009°40'1 2.0
2018-Feb-22 16:30N 58°15' E 009°41'3 3.9
2018-Feb-22 15:49N 58°17' E 009°37'2 1.7
2018-Feb-22 14:49N 58°16' E 009°40'1 4.3
2018-Feb-22 14:30N 58°17' E 009°38'5 3.7
2018-Feb-22 13:06N 58°15' E 009°29'2 2.0
2018-Feb-22 12:19N 58°14' E 009°30'1 0.6
2018-Feb-22 10:36N 58°13' E 009°28'0 3.4
2018-Feb-22 10:29N 58°13' E 009°28'4 3.2
2018-Feb-22 09:11N 58°14' E 009°35'0 0.9
2018-Feb-22 08:48N 58°15' E 009°35'1 0.2
2018-Feb-22 05:56N 58°15' E 009°35'37 2.8
2018-Feb-21 16:41N 58°45' E 010°16'2 9.9
2018-Feb-21 16:30N 58°47' E 010°18'510.1
2018-Feb-21 16:00N 58°51' E 010°24'510.1
2018-Feb-21 15:30N 58°55' E 010°29'5 9.9
2018-Feb-21 15:01N 58°59' E 010°33'5 9.9
2018-Feb-21 14:31N 59°04' E 010°34'5 9.4
2018-Feb-21 14:01N 59°09' E 010°36'5 9.9
2018-Feb-21 13:30N 59°14' E 010°35'510.4
2018-Feb-21 13:00N 59°19' E 010°33'510.1
2018-Feb-21 12:31N 59°24' E 010°30'1 2.3
2018-Feb-21 11:59N 59°25' E 010°30'0 0.0
2018-Feb-21 11:29N 59°25' E 010°30'0 0.0
2018-Feb-21 10:59N 59°25' E 010°30'0 0.0
2018-Feb-21 10:29N 59°25' E 010°30'0 0.0
2018-Feb-21 09:59N 59°25' E 010°30'0 0.0
2018-Feb-21 09:29N 59°25' E 010°30'0 0.0
2018-Feb-21 08:59N 59°25' E 010°30'0 0.0
2018-Feb-21 08:29N 59°25' E 010°30'0 0.0
2018-Feb-21 07:59N 59°25' E 010°30'0 0.0
2018-Feb-21 07:29N 59°25' E 010°30'0 0.0
2018-Feb-21 06:59N 59°25' E 010°30'0 0.0
2018-Feb-21 06:29N 59°25' E 010°30'0 0.0
2018-Feb-21 05:59N 59°25' E 010°30'0 0.0
2018-Feb-21 05:29N 59°25' E 010°30'0 0.0
2018-Feb-21 04:59N 59°25' E 010°30'0 0.0
2018-Feb-21 04:29N 59°25' E 010°30'0 0.0
2018-Feb-21 03:59N 59°25' E 010°30'0 0.0
2018-Feb-21 03:29N 59°25' E 010°30'0 0.0
2018-Feb-21 02:59N 59°25' E 010°30'0 0.0
2018-Feb-21 02:29N 59°25' E 010°30'0 0.0
2018-Feb-21 01:59N 59°25' E 010°30'0 0.0
2018-Feb-21 01:29N 59°25' E 010°30'0 0.0
2018-Feb-21 00:59N 59°25' E 010°30'0 0.0
2018-Feb-21 00:29N 59°25' E 010°30'0 0.0
2018-Feb-20 23:59N 59°25' E 010°30'0 0.0
2018-Feb-20 23:29N 59°25' E 010°30'0 0.0
2018-Feb-20 22:59N 59°25' E 010°30'0 0.0
2018-Feb-20 22:29N 59°25' E 010°30'0 0.0
2018-Feb-20 21:59N 59°25' E 010°30'0 0.0
2018-Feb-20 21:29N 59°25' E 010°30'0 0.0
2018-Feb-20 20:59N 59°25' E 010°30'0 0.0
2018-Feb-20 20:29N 59°25' E 010°30'1 1.8
2018-Feb-20 20:00N 59°24' E 010°30'0 0.5
2018-Feb-20 19:30N 59°24' E 010°30'1 1.0
2018-Feb-20 19:00N 59°23' E 010°30'1 2.3
2018-Feb-20 18:30N 59°22' E 010°30'2 4.4
2018-Feb-20 18:00N 59°20' E 010°32'4 8.3
2018-Feb-20 17:30N 59°16' E 010°35'5 9.3
2018-Feb-20 17:00N 59°12' E 010°37'5 9.9
2018-Feb-20 16:30N 59°07' E 010°36'5 9.0
2018-Feb-20 16:00N 59°02' E 010°34'4 8.2
2018-Feb-20 15:30N 58°58' E 010°33'5 9.7
2018-Feb-20 15:00N 58°54' E 010°28'510.6
2018-Feb-20 14:30N 58°50' E 010°22'510.4
2018-Feb-20 14:00N 58°46' E 010°16'510.6
2018-Feb-20 13:30N 58°41' E 010°10'610.7
2018-Feb-20 12:59N 58°37' E 010°04'7 0.6
2018-Feb-20 02:45N 58°39' E 010°16'2 6.2
2018-Feb-20 02:30N 58°40' E 010°18'3 6.2
2018-Feb-20 02:00N 58°42' E 010°22'3 6.0
2018-Feb-20 01:30N 58°45' E 010°26'3 6.1
2018-Feb-20 01:00N 58°47' E 010°30'3 5.4
2018-Feb-20 00:30N 58°49' E 010°32'3 5.3
2018-Feb-20 00:00N 58°52' E 010°33'3 5.7
2018-Feb-19 23:30N 58°55' E 010°33'3 5.9
2018-Feb-19 23:00N 58°58' E 010°34'4 8.8
2018-Feb-19 22:30N 59°02' E 010°35'1 2.8
2018-Feb-19 22:00N 59°03' E 010°35'3 6.8
2018-Feb-19 21:30N 58°60' E 010°34'3 6.7
2018-Feb-19 21:00N 58°57' E 010°33'4 7.1
2018-Feb-19 20:30N 58°53' E 010°32'4 7.2
2018-Feb-19 20:00N 58°50' E 010°31'4 7.8
2018-Feb-19 19:30N 58°46' E 010°30'5 9.4
2018-Feb-19 19:00N 58°41' E 010°29'5 9.5
2018-Feb-19 18:30N 58°36' E 010°28'4 8.8
2018-Feb-19 18:00N 58°32' E 010°27'27 8.5
2018-Feb-19 14:52N 58°05' E 010°31'3 9.1
2018-Feb-19 14:30N 58°02' E 010°33'5 9.2
2018-Feb-19 14:00N 57°58' E 010°37'5 9.4
2018-Feb-19 13:30N 57°54' E 010°41'4 8.9
2018-Feb-19 13:00N 57°50' E 010°44'5 9.6
2018-Feb-19 12:30N 57°45' E 010°46'510.2
2018-Feb-19 12:00N 57°40' E 010°46'5 9.9
2018-Feb-19 11:30N 57°35' E 010°45'5 9.9
2018-Feb-19 11:00N 57°30' E 010°44'510.0
2018-Feb-19 10:30N 57°25' E 010°44'510.4
2018-Feb-19 10:00N 57°20' E 010°43'118 9.7
2018-Feb-18 21:51N 55°22' E 011°02'510.9
2018-Feb-18 21:26N 55°18' E 011°03'511.0
2018-Feb-18 21:00N 55°14' E 011°06'510.8
2018-Feb-18 20:30N 55°09' E 011°03'510.7
2018-Feb-18 20:00N 55°03' E 011°02'510.7
2018-Feb-18 19:30N 54°58' E 010°59'611.2
2018-Feb-18 19:00N 54°54' E 010°54'611.2
2018-Feb-18 18:30N 54°48' E 010°53'510.7
2018-Feb-18 18:00N 54°43' E 010°54'510.0
2018-Feb-18 17:30N 54°40' E 011°00'510.4
2018-Feb-18 17:00N 54°37' E 011°08'510.4
2018-Feb-18 16:30N 54°34' E 011°16'510.2
2018-Feb-18 16:00N 54°32' E 011°24'5 9.9
2018-Feb-18 15:30N 54°30' E 011°32'5 9.5
2018-Feb-18 15:00N 54°28' E 011°39'5 9.4
2018-Feb-18 14:30N 54°26' E 011°46'5 9.2
2018-Feb-18 13:58N 54°22' E 011°52'5 9.6
2018-Feb-18 13:28N 54°18' E 011°57'5 9.7
2018-Feb-18 13:00N 54°15' E 012°02'6 1.8
2018-Feb-18 09:38N 54°09' E 012°06'0 0.0
2018-Feb-18 07:41N 54°09' E 012°06'0 0.0
2018-Feb-18 06:41N 54°09' E 012°06'0 0.0
2018-Feb-18 06:26N 54°09' E 012°06'0 0.0
2018-Feb-18 05:59N 54°09' E 012°06'0 0.0
2018-Feb-18 04:44N 54°09' E 012°06'0 0.0
2018-Feb-18 03:38N 54°09' E 012°06'0 0.0
2018-Feb-18 03:29N 54°09' E 012°06'0 0.0
2018-Feb-18 02:14N 54°09' E 012°06'0 0.0
2018-Feb-18 01:47N 54°09' E 012°06'0 0.0
2018-Feb-17 22:50N 54°09' E 012°06'0 0.0
2018-Feb-17 20:29N 54°09' E 012°06'0 0.0
2018-Feb-17 17:41N 54°09' E 012°06'0 0.0
2018-Feb-17 17:26N 54°09' E 012°06'0 0.0
2018-Feb-17 16:56N 54°09' E 012°06'0 0.0
2018-Feb-17 16:26N 54°09' E 012°06'0 0.0
2018-Feb-17 15:59N 54°09' E 012°06'0 0.0
2018-Feb-17 14:29N 54°09' E 012°06'0 0.0
2018-Feb-17 13:11N 54°09' E 012°06'0 0.0
2018-Feb-17 12:59N 54°09' E 012°06'0 0.0
2018-Feb-17 11:44N 54°09' E 012°06'0 0.0
2018-Feb-17 11:29N 54°09' E 012°06'0 0.0
2018-Feb-17 10:59N 54°09' E 012°06'0 0.0
2018-Feb-17 06:53N 54°09' E 012°06'0 0.0
2018-Feb-17 06:23N 54°09' E 012°06'0 0.0
2018-Feb-17 04:56N 54°09' E 012°06'0 0.0
2018-Feb-17 01:44N 54°09' E 012°06'0 0.0
2018-Feb-17 00:14N 54°09' E 012°06'0 0.0
2018-Feb-16 23:59N 54°09' E 012°06'0 0.0
2018-Feb-16 23:29N 54°09' E 012°06'0 0.0
2018-Feb-16 22:59N 54°09' E 012°06'0 0.0
2018-Feb-16 20:30N 54°09' E 012°06'0 0.0
2018-Feb-16 19:50N 54°09' E 012°06'0 0.0
2018-Feb-16 19:05N 54°09' E 012°06'0 0.0
2018-Feb-16 18:53N 54°09' E 012°06'0 0.0
2018-Feb-16 15:56N 54°09' E 012°06'0 0.0
2018-Feb-16 15:26N 54°09' E 012°06'0 0.0
2018-Feb-16 14:56N 54°09' E 012°06'0 0.0
2018-Feb-16 12:59N 54°09' E 012°06'0 0.0
2018-Feb-16 12:29N 54°09' E 012°06'0 0.0
2018-Feb-16 09:44N 54°09' E 012°06'0 0.0
2018-Feb-16 07:14N 54°09' E 012°06'0 0.0
2018-Feb-16 06:59N 54°09' E 012°06'0 0.0
2018-Feb-16 05:35N 54°09' E 012°06'0 0.0
2018-Feb-16 05:20N 54°09' E 012°06'0 0.0
2018-Feb-16 04:53N 54°09' E 012°06'0 0.0
2018-Feb-16 04:09N 54°09' E 012°06'0 0.0
2018-Feb-16 03:53N 54°09' E 012°06'0 0.0
2018-Feb-16 01:23N 54°09' E 012°06'0 0.0
2018-Feb-15 23:29N 54°09' E 012°06'0 0.0
2018-Feb-15 21:59N 54°09' E 012°06'0 0.0
2018-Feb-15 20:59N 54°09' E 012°06'0 0.0
2018-Feb-15 18:47N 54°09' E 012°06'0 0.0
2018-Feb-15 14:38N 54°09' E 012°06'0 0.0
2018-Feb-15 14:23N 54°09' E 012°06'0 0.0
2018-Feb-15 10:00N 54°09' E 012°06'3 4.2
2018-Feb-15 09:15N 54°12' E 012°05'2 8.7
2018-Feb-15 09:00N 54°14' E 012°03'510.0
2018-Feb-15 08:31N 54°19' E 012°00'510.1
2018-Feb-15 08:00N 54°24' E 011°59'5 9.2
2018-Feb-15 07:30N 54°26' E 012°06'510.5
2018-Feb-15 07:01N 54°30' E 012°11'511.0
2018-Feb-15 06:30N 54°35' E 012°14'610.9
2018-Feb-15 06:00N 54°39' E 012°21'6711.1
2018-Feb-14 23:59N 55°05' E 014°08'611.2
2018-Feb-14 23:29N 55°10' E 014°14'6 7.3
2018-Feb-14 22:39N 55°14' E 014°21'1 4.7
2018-Feb-14 22:30N 55°15' E 014°22'1 1.8
2018-Feb-14 22:00N 55°14' E 014°23'0 0.0
2018-Feb-14 21:30N 55°14' E 014°23'0 0.0
2018-Feb-14 21:00N 55°14' E 014°23'0 0.0
2018-Feb-14 20:30N 55°14' E 014°23'1 0.4
2018-Feb-14 18:55N 55°14' E 014°23'0 1.1
2018-Feb-14 18:31N 55°13' E 014°24'0 0.0
2018-Feb-14 18:00N 55°13' E 014°24'0 0.0
2018-Feb-14 17:29N 55°13' E 014°24'0 0.2
2018-Feb-14 17:00N 55°13' E 014°24'0 0.5
2018-Feb-14 16:00N 55°13' E 014°24'0 0.7
2018-Feb-14 15:30N 55°12' E 014°24'2 3.1
2018-Feb-14 15:00N 55°12' E 014°27'0 0.0
2018-Feb-14 14:30N 55°12' E 014°27'0 0.0
2018-Feb-14 14:00N 55°12' E 014°27'0 0.0
2018-Feb-14 13:30N 55°12' E 014°27'0 0.0
2018-Feb-14 13:00N 55°12' E 014°27'0 0.0
2018-Feb-14 12:30N 55°12' E 014°27'0 0.0
2018-Feb-14 12:00N 55°12' E 014°27'0 0.0
2018-Feb-14 11:30N 55°12' E 014°27'2 4.2
2018-Feb-14 11:00N 55°13' E 014°24'0 0.7
2018-Feb-14 10:30N 55°13' E 014°24'0 0.3
2018-Feb-14 10:00N 55°13' E 014°24'0 0.9
2018-Feb-14 09:27N 55°12' E 014°24'0 0.1
2018-Feb-14 09:00N 55°12' E 014°24'1 1.1
2018-Feb-14 08:30N 55°12' E 014°24'0 0.0
2018-Feb-14 08:00N 55°12' E 014°24'1 1.2
2018-Feb-14 07:30N 55°11' E 014°23'0 0.3
2018-Feb-14 07:00N 55°11' E 014°23'0 0.9
2018-Feb-14 06:30N 55°11' E 014°23'0 0.0
2018-Feb-14 06:00N 55°11' E 014°23'0 1.0
2018-Feb-14 05:30N 55°10' E 014°22'0 0.0
2018-Feb-14 05:00N 55°10' E 014°22'1 1.1
2018-Feb-14 04:30N 55°10' E 014°22'0 0.0
2018-Feb-14 04:00N 55°10' E 014°22'1 1.1
2018-Feb-14 03:30N 55°09' E 014°21'1 1.1
2018-Feb-14 03:00N 55°09' E 014°20'0 0.0
2018-Feb-14 02:30N 55°09' E 014°20'0 0.0
2018-Feb-14 01:32N 55°09' E 014°20'0 0.1
2018-Feb-14 01:28N 55°09' E 014°20'3 7.1
2018-Feb-14 01:00N 55°11' E 014°25'3 6.8
2018-Feb-14 00:30N 55°14' E 014°24'0 0.6
2018-Feb-14 00:00N 55°14' E 014°23'0 0.0
2018-Feb-13 23:30N 55°14' E 014°23'1 1.0
2018-Feb-13 23:00N 55°14' E 014°23'0 0.0
2018-Feb-13 22:20N 55°14' E 014°23'1 1.6
2018-Feb-13 22:00N 55°13' E 014°24'0 0.0
2018-Feb-13 21:30N 55°13' E 014°24'1 1.0
2018-Feb-13 20:56N 55°13' E 014°24'0 0.0
2018-Feb-13 20:26N 55°13' E 014°24'1 1.2
2018-Feb-13 20:00N 55°12' E 014°24'0 0.0
2018-Feb-13 19:29N 55°12' E 014°24'1 1.0
2018-Feb-13 19:00N 55°12' E 014°24'0 0.0
2018-Feb-13 18:27N 55°12' E 014°24'1 1.4
2018-Feb-13 18:00N 55°11' E 014°23'0 0.0
2018-Feb-13 17:30N 55°11' E 014°23'1 1.2
2018-Feb-13 16:59N 55°11' E 014°23'0 0.0
2018-Feb-13 16:30N 55°11' E 014°23'0 1.0
2018-Feb-13 16:00N 55°10' E 014°22'0 0.0
2018-Feb-13 15:29N 55°10' E 014°22'1 1.1
2018-Feb-13 15:00N 55°10' E 014°21'0 0.0
2018-Feb-13 14:30N 55°10' E 014°21'1 1.1
2018-Feb-13 14:00N 55°09' E 014°21'0 0.0
2018-Feb-13 13:30N 55°09' E 014°21'0 0.9
2018-Feb-13 13:00N 55°09' E 014°20'0 0.1
2018-Feb-13 12:29N 55°09' E 014°20'1 1.3
2018-Feb-13 11:58N 55°09' E 014°21'510.4
2018-Feb-13 11:30N 55°12' E 014°29'510.8
2018-Feb-13 11:00N 55°15' E 014°36'510.4
2018-Feb-13 10:30N 55°18' E 014°43'3 4.8
2018-Feb-13 09:53N 55°18' E 014°48'0 0.0
2018-Feb-13 09:25N 55°18' E 014°48'0 0.1
2018-Feb-13 08:58N 55°18' E 014°48'4 8.1
2018-Feb-13 08:30N 55°18' E 014°42'611.1
2018-Feb-13 07:58N 55°14' E 014°35'510.4
2018-Feb-13 07:30N 55°10' E 014°30'5 9.5
2018-Feb-13 07:00N 55°06' E 014°25'5 9.5
2018-Feb-13 06:30N 55°02' E 014°20'5 9.1
2018-Feb-13 05:58N 54°58' E 014°16'4 9.2
2018-Feb-13 05:30N 54°53' E 014°15'  

Dump ship's entire track history